sensor_id;sensor_type;location;lat;lon;timestamp;P1;durP1;ratioP1;P2;durP2;ratioP2
71665;SDS011;59503;53.486;10.196;2024-01-30T00:00:35;13.23;;;6.00;;
71665;SDS011;59503;53.486;10.196;2024-01-30T00:03:00;11.37;;;5.57;;
71665;SDS011;59503;53.486;10.196;2024-01-30T00:05:26;13.65;;;5.93;;
71665;SDS011;59503;53.486;10.196;2024-01-30T00:07:51;15.50;;;6.03;;
71665;SDS011;59503;53.486;10.196;2024-01-30T00:10:17;12.33;;;5.50;;
71665;SDS011;59503;53.486;10.196;2024-01-30T00:12:42;13.33;;;6.27;;
71665;SDS011;59503;53.486;10.196;2024-01-30T00:15:08;20.02;;;5.75;;
71665;SDS011;59503;53.486;10.196;2024-01-30T00:17:35;13.20;;;5.37;;
71665;SDS011;59503;53.486;10.196;2024-01-30T00:20:02;11.90;;;5.28;;
71665;SDS011;59503;53.486;10.196;2024-01-30T00:22:31;10.82;;;6.00;;
71665;SDS011;59503;53.486;10.196;2024-01-30T00:24:56;12.05;;;6.03;;
71665;SDS011;59503;53.486;10.196;2024-01-30T00:27:22;11.93;;;5.93;;
71665;SDS011;59503;53.486;10.196;2024-01-30T00:29:47;13.73;;;5.97;;
71665;SDS011;59503;53.486;10.196;2024-01-30T00:32:12;9.73;;;5.80;;
71665;SDS011;59503;53.486;10.196;2024-01-30T00:34:38;11.45;;;5.80;;
71665;SDS011;59503;53.486;10.196;2024-01-30T00:37:03;10.50;;;5.40;;
71665;SDS011;59503;53.486;10.196;2024-01-30T00:39:29;12.50;;;6.13;;
71665;SDS011;59503;53.486;10.196;2024-01-30T00:41:54;13.30;;;6.13;;
71665;SDS011;59503;53.486;10.196;2024-01-30T00:44:20;16.50;;;6.30;;
71665;SDS011;59503;53.486;10.196;2024-01-30T00:46:45;11.00;;;6.00;;
71665;SDS011;59503;53.486;10.196;2024-01-30T00:49:11;11.32;;;6.05;;
71665;SDS011;59503;53.486;10.196;2024-01-30T00:51:36;10.60;;;5.33;;
71665;SDS011;59503;53.486;10.196;2024-01-30T00:54:02;12.23;;;5.93;;
71665;SDS011;59503;53.486;10.196;2024-01-30T00:56:28;12.57;;;6.15;;
71665;SDS011;59503;53.486;10.196;2024-01-30T00:58:53;13.05;;;6.00;;
71665;SDS011;59503;53.486;10.196;2024-01-30T01:01:19;13.67;;;5.70;;
71665;SDS011;59503;53.486;10.196;2024-01-30T01:03:44;11.93;;;6.33;;
71665;SDS011;59503;53.486;10.196;2024-01-30T01:06:10;11.30;;;5.97;;
71665;SDS011;59503;53.486;10.196;2024-01-30T01:08:35;17.20;;;6.32;;
71665;SDS011;59503;53.486;10.196;2024-01-30T01:11:01;11.17;;;5.97;;
71665;SDS011;59503;53.486;10.196;2024-01-30T01:13:28;11.57;;;5.53;;
71665;SDS011;59503;53.486;10.196;2024-01-30T01:15:54;10.13;;;5.47;;
71665;SDS011;59503;53.486;10.196;2024-01-30T01:18:19;10.70;;;5.40;;
71665;SDS011;59503;53.486;10.196;2024-01-30T01:20:45;13.23;;;5.67;;
71665;SDS011;59503;53.486;10.196;2024-01-30T01:23:11;12.23;;;6.00;;
71665;SDS011;59503;53.486;10.196;2024-01-30T01:25:36;19.30;;;6.73;;
71665;SDS011;59503;53.486;10.196;2024-01-30T01:28:01;13.23;;;5.70;;
71665;SDS011;59503;53.486;10.196;2024-01-30T01:30:27;15.80;;;6.10;;
71665;SDS011;59503;53.486;10.196;2024-01-30T01:32:54;14.20;;;6.47;;
71665;SDS011;59503;53.486;10.196;2024-01-30T01:35:26;12.18;;;6.38;;
71665;SDS011;59503;53.486;10.196;2024-01-30T01:37:51;15.02;;;6.25;;
71665;SDS011;59503;53.486;10.196;2024-01-30T01:40:23;14.47;;;6.50;;
71665;SDS011;59503;53.486;10.196;2024-01-30T01:42:50;13.18;;;6.45;;
71665;SDS011;59503;53.486;10.196;2024-01-30T01:45:19;12.05;;;6.18;;
71665;SDS011;59503;53.486;10.196;2024-01-30T01:47:45;16.38;;;6.70;;
71665;SDS011;59503;53.486;10.196;2024-01-30T01:50:12;13.70;;;6.45;;
71665;SDS011;59503;53.486;10.196;2024-01-30T01:52:40;13.13;;;6.60;;
71665;SDS011;59503;53.486;10.196;2024-01-30T01:55:06;12.20;;;6.03;;
71665;SDS011;59503;53.486;10.196;2024-01-30T01:57:33;10.50;;;5.78;;
71665;SDS011;59503;53.486;10.196;2024-01-30T02:00:00;18.02;;;6.78;;
71665;SDS011;59503;53.486;10.196;2024-01-30T02:02:26;11.70;;;5.70;;
71665;SDS011;59503;53.486;10.196;2024-01-30T02:04:56;13.27;;;6.30;;
71665;SDS011;59503;53.486;10.196;2024-01-30T02:07:22;11.05;;;5.72;;
71665;SDS011;59503;53.486;10.196;2024-01-30T02:09:48;14.82;;;6.93;;
71665;SDS011;59503;53.486;10.196;2024-01-30T02:12:13;13.70;;;6.30;;
71665;SDS011;59503;53.486;10.196;2024-01-30T02:14:45;18.13;;;7.10;;
71665;SDS011;59503;53.486;10.196;2024-01-30T02:17:11;11.88;;;5.97;;
71665;SDS011;59503;53.486;10.196;2024-01-30T02:19:37;18.10;;;7.05;;
71665;SDS011;59503;53.486;10.196;2024-01-30T02:22:05;14.10;;;6.43;;
71665;SDS011;59503;53.486;10.196;2024-01-30T02:24:31;14.50;;;6.28;;
71665;SDS011;59503;53.486;10.196;2024-01-30T02:26:56;13.03;;;6.93;;
71665;SDS011;59503;53.486;10.196;2024-01-30T02:29:22;13.90;;;6.33;;
71665;SDS011;59503;53.486;10.196;2024-01-30T02:31:47;22.00;;;6.50;;
71665;SDS011;59503;53.486;10.196;2024-01-30T02:34:13;12.10;;;5.77;;
71665;SDS011;59503;53.486;10.196;2024-01-30T02:36:41;11.68;;;6.43;;
71665;SDS011;59503;53.486;10.196;2024-01-30T02:39:08;16.42;;;7.30;;
71665;SDS011;59503;53.486;10.196;2024-01-30T02:41:33;15.60;;;6.37;;
71665;SDS011;59503;53.486;10.196;2024-01-30T02:43:58;13.93;;;6.90;;
71665;SDS011;59503;53.486;10.196;2024-01-30T02:46:24;12.70;;;6.67;;
71665;SDS011;59503;53.486;10.196;2024-01-30T02:48:49;15.32;;;7.05;;
71665;SDS011;59503;53.486;10.196;2024-01-30T02:51:15;13.63;;;6.80;;
71665;SDS011;59503;53.486;10.196;2024-01-30T02:53:40;14.37;;;7.37;;
71665;SDS011;59503;53.486;10.196;2024-01-30T02:56:06;16.70;;;6.70;;
71665;SDS011;59503;53.486;10.196;2024-01-30T02:58:34;17.80;;;7.27;;
71665;SDS011;59503;53.486;10.196;2024-01-30T03:01:00;11.10;;;6.25;;
71665;SDS011;59503;53.486;10.196;2024-01-30T03:03:25;13.17;;;6.40;;
71665;SDS011;59503;53.486;10.196;2024-01-30T03:05:50;15.97;;;7.77;;
71665;SDS011;59503;53.486;10.196;2024-01-30T03:08:16;14.60;;;6.90;;
71665;SDS011;59503;53.486;10.196;2024-01-30T03:10:41;14.30;;;6.67;;
71665;SDS011;59503;53.486;10.196;2024-01-30T03:13:07;17.65;;;7.20;;
71665;SDS011;59503;53.486;10.196;2024-01-30T03:15:32;15.73;;;7.10;;
71665;SDS011;59503;53.486;10.196;2024-01-30T03:17:57;13.17;;;6.53;;
71665;SDS011;59503;53.486;10.196;2024-01-30T03:20:23;14.73;;;7.00;;
71665;SDS011;59503;53.486;10.196;2024-01-30T03:22:49;17.95;;;7.10;;
71665;SDS011;59503;53.486;10.196;2024-01-30T03:25:14;18.90;;;7.60;;
71665;SDS011;59503;53.486;10.196;2024-01-30T03:27:40;16.33;;;7.65;;
71665;SDS011;59503;53.486;10.196;2024-01-30T03:30:05;15.00;;;7.50;;
71665;SDS011;59503;53.486;10.196;2024-01-30T03:32:31;18.83;;;7.65;;
71665;SDS011;59503;53.486;10.196;2024-01-30T03:34:56;15.70;;;8.13;;
71665;SDS011;59503;53.486;10.196;2024-01-30T03:37:23;16.27;;;7.30;;
71665;SDS011;59503;53.486;10.196;2024-01-30T03:39:48;16.50;;;8.30;;
71665;SDS011;59503;53.486;10.196;2024-01-30T03:42:13;17.67;;;8.13;;
71665;SDS011;59503;53.486;10.196;2024-01-30T03:44:39;13.50;;;6.77;;
71665;SDS011;59503;53.486;10.196;2024-01-30T03:47:04;12.50;;;7.03;;
71665;SDS011;59503;53.486;10.196;2024-01-30T03:49:30;19.00;;;8.13;;
71665;SDS011;59503;53.486;10.196;2024-01-30T03:51:55;17.67;;;7.87;;
71665;SDS011;59503;53.486;10.196;2024-01-30T03:54:20;15.40;;;7.53;;
71665;SDS011;59503;53.486;10.196;2024-01-30T03:56:46;17.00;;;8.00;;
71665;SDS011;59503;53.486;10.196;2024-01-30T03:59:11;17.23;;;7.78;;
71665;SDS011;59503;53.486;10.196;2024-01-30T04:01:37;16.80;;;8.03;;
71665;SDS011;59503;53.486;10.196;2024-01-30T04:04:02;21.93;;;8.43;;
71665;SDS011;59503;53.486;10.196;2024-01-30T04:06:28;19.33;;;9.07;;
71665;SDS011;59503;53.486;10.196;2024-01-30T04:08:53;17.15;;;8.70;;
71665;SDS011;59503;53.486;10.196;2024-01-30T04:11:18;16.90;;;8.50;;
71665;SDS011;59503;53.486;10.196;2024-01-30T04:13:45;22.33;;;9.90;;
71665;SDS011;59503;53.486;10.196;2024-01-30T04:16:19;16.97;;;8.60;;
71665;SDS011;59503;53.486;10.196;2024-01-30T04:18:47;20.25;;;8.77;;
71665;SDS011;59503;53.486;10.196;2024-01-30T04:21:13;19.60;;;8.30;;
71665;SDS011;59503;53.486;10.196;2024-01-30T04:23:39;18.65;;;8.88;;
71665;SDS011;59503;53.486;10.196;2024-01-30T04:26:05;18.70;;;8.63;;
71665;SDS011;59503;53.486;10.196;2024-01-30T04:28:31;20.13;;;8.55;;
71665;SDS011;59503;53.486;10.196;2024-01-30T04:30:56;17.00;;;8.70;;
71665;SDS011;59503;53.486;10.196;2024-01-30T04:33:21;16.63;;;8.00;;
71665;SDS011;59503;53.486;10.196;2024-01-30T04:35:47;19.27;;;8.50;;
71665;SDS011;59503;53.486;10.196;2024-01-30T04:38:12;21.83;;;8.80;;
71665;SDS011;59503;53.486;10.196;2024-01-30T04:40:39;17.37;;;8.03;;
71665;SDS011;59503;53.486;10.196;2024-01-30T04:43:04;18.98;;;8.45;;
71665;SDS011;59503;53.486;10.196;2024-01-30T04:45:30;17.73;;;8.57;;
71665;SDS011;59503;53.486;10.196;2024-01-30T04:47:55;19.93;;;8.93;;
71665;SDS011;59503;53.486;10.196;2024-01-30T04:50:21;14.37;;;7.93;;
71665;SDS011;59503;53.486;10.196;2024-01-30T04:52:46;23.30;;;8.75;;
71665;SDS011;59503;53.486;10.196;2024-01-30T04:55:11;20.83;;;8.70;;
71665;SDS011;59503;53.486;10.196;2024-01-30T04:57:37;19.23;;;8.30;;
71665;SDS011;59503;53.486;10.196;2024-01-30T05:00:02;16.83;;;8.40;;
71665;SDS011;59503;53.486;10.196;2024-01-30T05:02:28;16.05;;;8.32;;
71665;SDS011;59503;53.486;10.196;2024-01-30T05:04:54;19.20;;;8.83;;
71665;SDS011;59503;53.486;10.196;2024-01-30T05:07:19;17.35;;;8.95;;
71665;SDS011;59503;53.486;10.196;2024-01-30T05:09:45;19.83;;;9.50;;
71665;SDS011;59503;53.486;10.196;2024-01-30T05:12:10;22.43;;;9.43;;
71665;SDS011;59503;53.486;10.196;2024-01-30T05:14:36;19.30;;;8.65;;
71665;SDS011;59503;53.486;10.196;2024-01-30T05:17:01;18.33;;;9.20;;
71665;SDS011;59503;53.486;10.196;2024-01-30T05:19:28;20.10;;;9.20;;
71665;SDS011;59503;53.486;10.196;2024-01-30T05:21:53;21.90;;;9.93;;
71665;SDS011;59503;53.486;10.196;2024-01-30T05:24:19;20.30;;;10.33;;
71665;SDS011;59503;53.486;10.196;2024-01-30T05:26:44;25.10;;;10.43;;
71665;SDS011;59503;53.486;10.196;2024-01-30T05:29:09;21.83;;;9.67;;
71665;SDS011;59503;53.486;10.196;2024-01-30T05:31:35;21.13;;;9.73;;
71665;SDS011;59503;53.486;10.196;2024-01-30T05:34:00;20.23;;;9.63;;
71665;SDS011;59503;53.486;10.196;2024-01-30T05:36:26;23.48;;;10.05;;
71665;SDS011;59503;53.486;10.196;2024-01-30T05:38:52;24.13;;;10.33;;
71665;SDS011;59503;53.486;10.196;2024-01-30T05:41:17;20.17;;;9.87;;
71665;SDS011;59503;53.486;10.196;2024-01-30T05:43:43;21.23;;;9.40;;
71665;SDS011;59503;53.486;10.196;2024-01-30T05:46:09;20.83;;;9.57;;
71665;SDS011;59503;53.486;10.196;2024-01-30T05:48:34;21.87;;;10.43;;
71665;SDS011;59503;53.486;10.196;2024-01-30T05:51:00;20.55;;;10.20;;
71665;SDS011;59503;53.486;10.196;2024-01-30T05:53:26;20.35;;;9.75;;
71665;SDS011;59503;53.486;10.196;2024-01-30T05:55:52;22.00;;;10.47;;
71665;SDS011;59503;53.486;10.196;2024-01-30T05:58:17;21.80;;;10.33;;
71665;SDS011;59503;53.486;10.196;2024-01-30T06:00:43;21.77;;;10.67;;
71665;SDS011;59503;53.486;10.196;2024-01-30T06:03:08;19.75;;;9.07;;
71665;SDS011;59503;53.486;10.196;2024-01-30T06:05:33;28.17;;;10.47;;
71665;SDS011;59503;53.486;10.196;2024-01-30T06:07:59;20.10;;;10.07;;
71665;SDS011;59503;53.486;10.196;2024-01-30T06:10:24;22.37;;;10.03;;
71665;SDS011;59503;53.486;10.196;2024-01-30T06:12:49;21.70;;;10.13;;
71665;SDS011;59503;53.486;10.196;2024-01-30T06:15:15;20.55;;;10.30;;
71665;SDS011;59503;53.486;10.196;2024-01-30T06:17:40;21.10;;;10.67;;
71665;SDS011;59503;53.486;10.196;2024-01-30T06:20:06;23.63;;;10.53;;
71665;SDS011;59503;53.486;10.196;2024-01-30T06:22:31;21.88;;;10.43;;
71665;SDS011;59503;53.486;10.196;2024-01-30T06:24:57;24.70;;;9.87;;
71665;SDS011;59503;53.486;10.196;2024-01-30T06:27:22;20.70;;;10.20;;
71665;SDS011;59503;53.486;10.196;2024-01-30T06:29:48;22.57;;;11.23;;
71665;SDS011;59503;53.486;10.196;2024-01-30T06:32:13;23.30;;;10.52;;
71665;SDS011;59503;53.486;10.196;2024-01-30T06:34:38;18.43;;;10.03;;
71665;SDS011;59503;53.486;10.196;2024-01-30T06:37:06;18.70;;;9.70;;
71665;SDS011;59503;53.486;10.196;2024-01-30T06:39:31;26.47;;;10.37;;
71665;SDS011;59503;53.486;10.196;2024-01-30T06:41:56;24.30;;;10.43;;
71665;SDS011;59503;53.486;10.196;2024-01-30T06:44:22;25.73;;;11.03;;
71665;SDS011;59503;53.486;10.196;2024-01-30T06:46:47;23.55;;;9.45;;
71665;SDS011;59503;53.486;10.196;2024-01-30T06:49:13;22.90;;;10.50;;
71665;SDS011;59503;53.486;10.196;2024-01-30T06:51:38;25.13;;;11.47;;
71665;SDS011;59503;53.486;10.196;2024-01-30T06:54:03;22.73;;;11.43;;
71665;SDS011;59503;53.486;10.196;2024-01-30T06:56:29;24.73;;;11.40;;
71665;SDS011;59503;53.486;10.196;2024-01-30T06:58:55;23.60;;;11.20;;
71665;SDS011;59503;53.486;10.196;2024-01-30T07:01:20;23.50;;;10.88;;
71665;SDS011;59503;53.486;10.196;2024-01-30T07:03:46;20.47;;;10.10;;
71665;SDS011;59503;53.486;10.196;2024-01-30T07:06:11;23.87;;;10.63;;
71665;SDS011;59503;53.486;10.196;2024-01-30T07:08:37;26.17;;;11.77;;
71665;SDS011;59503;53.486;10.196;2024-01-30T07:11:04;24.53;;;11.10;;
71665;SDS011;59503;53.486;10.196;2024-01-30T07:13:30;23.08;;;12.13;;
71665;SDS011;59503;53.486;10.196;2024-01-30T07:15:55;21.97;;;10.83;;
71665;SDS011;59503;53.486;10.196;2024-01-30T07:18:21;27.13;;;11.43;;
71665;SDS011;59503;53.486;10.196;2024-01-30T07:20:46;22.70;;;10.57;;
71665;SDS011;59503;53.486;10.196;2024-01-30T07:23:13;23.02;;;10.75;;
71665;SDS011;59503;53.486;10.196;2024-01-30T07:25:41;21.77;;;10.43;;
71665;SDS011;59503;53.486;10.196;2024-01-30T07:28:07;28.73;;;11.52;;
71665;SDS011;59503;53.486;10.196;2024-01-30T07:30:35;21.42;;;10.63;;
71665;SDS011;59503;53.486;10.196;2024-01-30T07:33:00;23.30;;;11.07;;
71665;SDS011;59503;53.486;10.196;2024-01-30T07:35:25;23.53;;;11.17;;
71665;SDS011;59503;53.486;10.196;2024-01-30T07:37:51;23.97;;;11.17;;
71665;SDS011;59503;53.486;10.196;2024-01-30T07:40:16;21.47;;;10.47;;
71665;SDS011;59503;53.486;10.196;2024-01-30T07:42:42;22.98;;;10.82;;
71665;SDS011;59503;53.486;10.196;2024-01-30T07:45:08;24.13;;;11.60;;
71665;SDS011;59503;53.486;10.196;2024-01-30T07:47:34;23.60;;;11.40;;
71665;SDS011;59503;53.486;10.196;2024-01-30T07:49:59;21.40;;;10.33;;
71665;SDS011;59503;53.486;10.196;2024-01-30T07:52:25;22.87;;;11.17;;
71665;SDS011;59503;53.486;10.196;2024-01-30T07:54:50;27.07;;;10.23;;
71665;SDS011;59503;53.486;10.196;2024-01-30T07:57:16;27.60;;;11.88;;
71665;SDS011;59503;53.486;10.196;2024-01-30T07:59:43;27.58;;;12.23;;
71665;SDS011;59503;53.486;10.196;2024-01-30T08:02:11;25.35;;;11.02;;
71665;SDS011;59503;53.486;10.196;2024-01-30T08:04:38;24.27;;;11.68;;
71665;SDS011;59503;53.486;10.196;2024-01-30T08:07:03;21.33;;;10.57;;
71665;SDS011;59503;53.486;10.196;2024-01-30T08:09:28;26.87;;;11.43;;
71665;SDS011;59503;53.486;10.196;2024-01-30T08:11:54;24.10;;;11.02;;
71665;SDS011;59503;53.486;10.196;2024-01-30T08:14:19;26.07;;;11.73;;
71665;SDS011;59503;53.486;10.196;2024-01-30T08:16:45;22.90;;;11.37;;
71665;SDS011;59503;53.486;10.196;2024-01-30T08:19:10;28.50;;;11.37;;
71665;SDS011;59503;53.486;10.196;2024-01-30T08:21:36;22.35;;;11.30;;
71665;SDS011;59503;53.486;10.196;2024-01-30T08:24:04;22.17;;;11.33;;
71665;SDS011;59503;53.486;10.196;2024-01-30T08:26:31;27.02;;;12.05;;
71665;SDS011;59503;53.486;10.196;2024-01-30T08:28:57;22.90;;;10.73;;
71665;SDS011;59503;53.486;10.196;2024-01-30T08:31:22;22.23;;;11.13;;
71665;SDS011;59503;53.486;10.196;2024-01-30T08:33:48;21.92;;;10.73;;
71665;SDS011;59503;53.486;10.196;2024-01-30T08:36:13;25.73;;;11.43;;
71665;SDS011;59503;53.486;10.196;2024-01-30T08:38:39;22.00;;;11.13;;
71665;SDS011;59503;53.486;10.196;2024-01-30T08:41:04;21.20;;;11.00;;
71665;SDS011;59503;53.486;10.196;2024-01-30T08:43:30;24.17;;;11.15;;
71665;SDS011;59503;53.486;10.196;2024-01-30T08:45:56;23.00;;;11.13;;
71665;SDS011;59503;53.486;10.196;2024-01-30T08:48:24;22.35;;;10.82;;
71665;SDS011;59503;53.486;10.196;2024-01-30T08:50:50;20.33;;;10.43;;
71665;SDS011;59503;53.486;10.196;2024-01-30T08:53:16;26.08;;;11.32;;
71665;SDS011;59503;53.486;10.196;2024-01-30T08:55:41;21.17;;;11.20;;
71665;SDS011;59503;53.486;10.196;2024-01-30T08:58:06;25.47;;;11.47;;
71665;SDS011;59503;53.486;10.196;2024-01-30T09:00:33;26.15;;;10.75;;
71665;SDS011;59503;53.486;10.196;2024-01-30T09:02:58;25.23;;;10.98;;
71665;SDS011;59503;53.486;10.196;2024-01-30T09:05:24;19.53;;;10.63;;
71665;SDS011;59503;53.486;10.196;2024-01-30T09:07:49;24.40;;;11.00;;
71665;SDS011;59503;53.486;10.196;2024-01-30T09:10:14;25.03;;;11.13;;
71665;SDS011;59503;53.486;10.196;2024-01-30T09:12:40;23.00;;;11.75;;
71665;SDS011;59503;53.486;10.196;2024-01-30T09:15:06;23.42;;;10.50;;
71665;SDS011;59503;53.486;10.196;2024-01-30T09:17:32;18.73;;;9.53;;
71665;SDS011;59503;53.486;10.196;2024-01-30T09:19:58;21.67;;;10.60;;
71665;SDS011;59503;53.486;10.196;2024-01-30T09:22:23;20.60;;;10.93;;
71665;SDS011;59503;53.486;10.196;2024-01-30T09:24:49;24.90;;;10.80;;
71665;SDS011;59503;53.486;10.196;2024-01-30T09:27:14;21.00;;;9.80;;
71665;SDS011;59503;53.486;10.196;2024-01-30T09:29:40;23.00;;;10.87;;
71665;SDS011;59503;53.486;10.196;2024-01-30T09:32:05;20.10;;;10.30;;
71665;SDS011;59503;53.486;10.196;2024-01-30T09:34:31;19.52;;;9.93;;
71665;SDS011;59503;53.486;10.196;2024-01-30T09:36:58;17.17;;;9.23;;
71665;SDS011;59503;53.486;10.196;2024-01-30T09:39:24;22.80;;;10.67;;
71665;SDS011;59503;53.486;10.196;2024-01-30T09:41:52;24.20;;;10.80;;
71665;SDS011;59503;53.486;10.196;2024-01-30T09:44:20;21.60;;;10.70;;
71665;SDS011;59503;53.486;10.196;2024-01-30T09:46:48;16.58;;;10.00;;
71665;SDS011;59503;53.486;10.196;2024-01-30T09:49:14;18.20;;;10.18;;
71665;SDS011;59503;53.486;10.196;2024-01-30T09:51:39;20.33;;;9.97;;
71665;SDS011;59503;53.486;10.196;2024-01-30T09:54:06;17.58;;;9.60;;
71665;SDS011;59503;53.486;10.196;2024-01-30T09:56:33;22.23;;;9.90;;
71665;SDS011;59503;53.486;10.196;2024-01-30T09:58:58;24.47;;;10.10;;
71665;SDS011;59503;53.486;10.196;2024-01-30T10:01:24;22.20;;;9.57;;
71665;SDS011;59503;53.486;10.196;2024-01-30T10:03:50;19.42;;;9.57;;
71665;SDS011;59503;53.486;10.196;2024-01-30T10:06:17;23.02;;;9.82;;
71665;SDS011;59503;53.486;10.196;2024-01-30T10:08:43;19.05;;;9.85;;
71665;SDS011;59503;53.486;10.196;2024-01-30T10:11:09;18.37;;;10.13;;
71665;SDS011;59503;53.486;10.196;2024-01-30T10:13:34;17.23;;;9.50;;
71665;SDS011;59503;53.486;10.196;2024-01-30T10:16:00;18.60;;;10.23;;
71665;SDS011;59503;53.486;10.196;2024-01-30T10:18:28;18.90;;;9.23;;
71665;SDS011;59503;53.486;10.196;2024-01-30T10:20:54;17.95;;;9.13;;
71665;SDS011;59503;53.486;10.196;2024-01-30T10:23:19;17.95;;;9.50;;
71665;SDS011;59503;53.486;10.196;2024-01-30T10:25:45;17.07;;;9.80;;
71665;SDS011;59503;53.486;10.196;2024-01-30T10:28:11;18.17;;;9.30;;
71665;SDS011;59503;53.486;10.196;2024-01-30T10:30:36;17.20;;;9.25;;
71665;SDS011;59503;53.486;10.196;2024-01-30T10:33:02;23.80;;;9.60;;
71665;SDS011;59503;53.486;10.196;2024-01-30T10:35:27;20.25;;;9.40;;
71665;SDS011;59503;53.486;10.196;2024-01-30T10:37:52;18.40;;;9.47;;
71665;SDS011;59503;53.486;10.196;2024-01-30T10:40:23;17.80;;;9.13;;
71665;SDS011;59503;53.486;10.196;2024-01-30T10:42:53;18.60;;;9.80;;
71665;SDS011;59503;53.486;10.196;2024-01-30T10:45:20;18.88;;;9.45;;
71665;SDS011;59503;53.486;10.196;2024-01-30T10:47:51;22.35;;;10.23;;
71665;SDS011;59503;53.486;10.196;2024-01-30T10:50:21;16.65;;;8.70;;
71665;SDS011;59503;53.486;10.196;2024-01-30T10:52:49;16.20;;;9.40;;
71665;SDS011;59503;53.486;10.196;2024-01-30T10:55:16;17.40;;;9.13;;
71665;SDS011;59503;53.486;10.196;2024-01-30T10:57:43;14.85;;;8.57;;
71665;SDS011;59503;53.486;10.196;2024-01-30T11:00:09;16.33;;;8.90;;
71665;SDS011;59503;53.486;10.196;2024-01-30T11:02:45;17.02;;;8.70;;
71665;SDS011;59503;53.486;10.196;2024-01-30T11:05:12;18.17;;;9.38;;
71665;SDS011;59503;53.486;10.196;2024-01-30T11:07:40;19.33;;;8.73;;
71665;SDS011;59503;53.486;10.196;2024-01-30T11:10:06;19.35;;;9.43;;
71665;SDS011;59503;53.486;10.196;2024-01-30T11:12:37;15.97;;;8.83;;
71665;SDS011;59503;53.486;10.196;2024-01-30T11:20:36;18.63;;;9.13;;
71665;SDS011;59503;53.486;10.196;2024-01-30T11:23:01;16.33;;;8.75;;
71665;SDS011;59503;53.486;10.196;2024-01-30T11:25:31;17.93;;;9.63;;
71665;SDS011;59503;53.486;10.196;2024-01-30T11:27:57;22.00;;;8.95;;
71665;SDS011;59503;53.486;10.196;2024-01-30T11:33:02;16.40;;;8.43;;
71665;SDS011;59503;53.486;10.196;2024-01-30T11:35:35;17.58;;;8.70;;
71665;SDS011;59503;53.486;10.196;2024-01-30T11:38:02;16.70;;;8.60;;
71665;SDS011;59503;53.486;10.196;2024-01-30T11:40:28;14.32;;;7.95;;
71665;SDS011;59503;53.486;10.196;2024-01-30T11:42:55;17.15;;;8.77;;
71665;SDS011;59503;53.486;10.196;2024-01-30T11:45:21;17.27;;;9.53;;
71665;SDS011;59503;53.486;10.196;2024-01-30T11:47:47;15.52;;;7.75;;
71665;SDS011;59503;53.486;10.196;2024-01-30T11:50:12;16.57;;;8.43;;
71665;SDS011;59503;53.486;10.196;2024-01-30T11:52:39;16.83;;;8.63;;
71665;SDS011;59503;53.486;10.196;2024-01-30T11:55:05;18.20;;;8.95;;
71665;SDS011;59503;53.486;10.196;2024-01-30T11:57:30;17.47;;;8.60;;
71665;SDS011;59503;53.486;10.196;2024-01-30T11:59:56;15.73;;;8.10;;
71665;SDS011;59503;53.486;10.196;2024-01-30T12:02:21;14.23;;;8.00;;
71665;SDS011;59503;53.486;10.196;2024-01-30T12:04:47;17.73;;;8.57;;
71665;SDS011;59503;53.486;10.196;2024-01-30T12:07:12;14.50;;;8.38;;
71665;SDS011;59503;53.486;10.196;2024-01-30T12:09:41;16.17;;;7.67;;
71665;SDS011;59503;53.486;10.196;2024-01-30T12:12:07;14.60;;;7.78;;
71665;SDS011;59503;53.486;10.196;2024-01-30T12:14:37;16.75;;;8.20;;
71665;SDS011;59503;53.486;10.196;2024-01-30T12:17:04;15.45;;;7.60;;
71665;SDS011;59503;53.486;10.196;2024-01-30T12:19:30;15.13;;;7.37;;
71665;SDS011;59503;53.486;10.196;2024-01-30T12:21:58;16.23;;;8.40;;
71665;SDS011;59503;53.486;10.196;2024-01-30T12:24:29;12.48;;;7.15;;
71665;SDS011;59503;53.486;10.196;2024-01-30T12:26:58;16.13;;;7.85;;
71665;SDS011;59503;53.486;10.196;2024-01-30T12:29:25;17.63;;;7.45;;
71665;SDS011;59503;53.486;10.196;2024-01-30T12:31:53;12.23;;;7.17;;
71665;SDS011;59503;53.486;10.196;2024-01-30T12:34:19;13.10;;;7.95;;
71665;SDS011;59503;53.486;10.196;2024-01-30T12:36:46;14.68;;;7.75;;
71665;SDS011;59503;53.486;10.196;2024-01-30T12:39:13;15.45;;;7.25;;
71665;SDS011;59503;53.486;10.196;2024-01-30T12:41:39;17.03;;;7.33;;
71665;SDS011;59503;53.486;10.196;2024-01-30T12:44:05;13.25;;;7.05;;
71665;SDS011;59503;53.486;10.196;2024-01-30T12:46:31;16.05;;;8.07;;
71665;SDS011;59503;53.486;10.196;2024-01-30T12:48:56;12.87;;;7.90;;
71665;SDS011;59503;53.486;10.196;2024-01-30T12:51:21;13.20;;;7.67;;
71665;SDS011;59503;53.486;10.196;2024-01-30T12:53:47;14.77;;;7.20;;
71665;SDS011;59503;53.486;10.196;2024-01-30T12:56:13;17.00;;;7.25;;
71665;SDS011;59503;53.486;10.196;2024-01-30T12:58:40;16.52;;;7.32;;
71665;SDS011;59503;53.486;10.196;2024-01-30T13:01:06;13.15;;;7.38;;
71665;SDS011;59503;53.486;10.196;2024-01-30T13:03:32;17.03;;;7.60;;
71665;SDS011;59503;53.486;10.196;2024-01-30T13:05:57;13.87;;;7.53;;
71665;SDS011;59503;53.486;10.196;2024-01-30T13:08:23;15.52;;;7.03;;
71665;SDS011;59503;53.486;10.196;2024-01-30T13:10:49;16.77;;;7.17;;
71665;SDS011;59503;53.486;10.196;2024-01-30T13:13:14;14.25;;;7.50;;
71665;SDS011;59503;53.486;10.196;2024-01-30T13:15:40;13.57;;;6.93;;
71665;SDS011;59503;53.486;10.196;2024-01-30T13:18:05;12.93;;;6.40;;
71665;SDS011;59503;53.486;10.196;2024-01-30T13:20:31;11.00;;;6.63;;
71665;SDS011;59503;53.486;10.196;2024-01-30T13:22:56;12.40;;;6.17;;
71665;SDS011;59503;53.486;10.196;2024-01-30T13:25:22;13.13;;;6.37;;
71665;SDS011;59503;53.486;10.196;2024-01-30T13:27:47;14.32;;;6.60;;
71665;SDS011;59503;53.486;10.196;2024-01-30T13:30:13;13.70;;;6.30;;
71665;SDS011;59503;53.486;10.196;2024-01-30T13:32:39;14.18;;;6.25;;
71665;SDS011;59503;53.486;10.196;2024-01-30T13:35:06;9.60;;;5.87;;
71665;SDS011;59503;53.486;10.196;2024-01-30T13:37:32;15.38;;;6.60;;
71665;SDS011;59503;53.486;10.196;2024-01-30T13:39:58;11.00;;;6.30;;
71665;SDS011;59503;53.486;10.196;2024-01-30T13:42:23;10.53;;;5.90;;
71665;SDS011;59503;53.486;10.196;2024-01-30T13:44:48;12.53;;;6.13;;
71665;SDS011;59503;53.486;10.196;2024-01-30T13:47:14;13.20;;;6.83;;
71665;SDS011;59503;53.486;10.196;2024-01-30T13:49:39;13.57;;;6.32;;
71665;SDS011;59503;53.486;10.196;2024-01-30T13:52:05;12.73;;;6.97;;
71665;SDS011;59503;53.486;10.196;2024-01-30T13:54:30;14.38;;;6.82;;
71665;SDS011;59503;53.486;10.196;2024-01-30T13:56:56;14.40;;;6.83;;
71665;SDS011;59503;53.486;10.196;2024-01-30T13:59:22;14.48;;;5.57;;
71665;SDS011;59503;53.486;10.196;2024-01-30T14:01:49;10.87;;;5.83;;
71665;SDS011;59503;53.486;10.196;2024-01-30T14:04:16;10.50;;;5.45;;
71665;SDS011;59503;53.486;10.196;2024-01-30T14:06:41;11.53;;;6.17;;
71665;SDS011;59503;53.486;10.196;2024-01-30T14:09:07;13.77;;;7.13;;
71665;SDS011;59503;53.486;10.196;2024-01-30T14:11:32;14.77;;;6.60;;
71665;SDS011;59503;53.486;10.196;2024-01-30T14:13:58;10.88;;;5.88;;
71665;SDS011;59503;53.486;10.196;2024-01-30T14:16:24;13.00;;;5.33;;
71665;SDS011;59503;53.486;10.196;2024-01-30T14:18:49;11.50;;;5.90;;